sensor_id;sensor_type;location;lat;lon;timestamp;P1;durP1;ratioP1;P2;durP2;ratioP2
24301;SDS011;12421;49.732;20.078;2023-08-07T00:02:58;2.10;;;0.50;;
24301;SDS011;12421;49.732;20.078;2023-08-07T00:24:42;1.60;;;0.60;;
24301;SDS011;12421;49.732;20.078;2023-08-07T00:34:57;2.50;;;0.90;;
24301;SDS011;12421;49.732;20.078;2023-08-07T00:45:51;2.00;;;0.60;;
24301;SDS011;12421;49.732;20.078;2023-08-07T00:56:08;2.30;;;0.60;;
24301;SDS011;12421;49.732;20.078;2023-08-07T01:06:45;2.40;;;0.60;;
24301;SDS011;12421;49.732;20.078;2023-08-07T01:16:58;4.50;;;0.70;;
24301;SDS011;12421;49.732;20.078;2023-08-07T01:37:44;1.80;;;0.60;;
24301;SDS011;12421;49.732;20.078;2023-08-07T01:47:51;1.60;;;0.50;;
24301;SDS011;12421;49.732;20.078;2023-08-07T01:57:56;1.50;;;0.60;;
24301;SDS011;12421;49.732;20.078;2023-08-07T02:08:03;1.40;;;0.70;;
24301;SDS011;12421;49.732;20.078;2023-08-07T02:18:10;3.10;;;0.60;;
24301;SDS011;12421;49.732;20.078;2023-08-07T02:28:49;1.10;;;0.60;;
24301;SDS011;12421;49.732;20.078;2023-08-07T02:39:09;6.40;;;0.70;;
24301;SDS011;12421;49.732;20.078;2023-08-07T02:49:15;4.30;;;0.80;;
24301;SDS011;12421;49.732;20.078;2023-08-07T02:59:23;5.00;;;0.80;;
24301;SDS011;12421;49.732;20.078;2023-08-07T03:09:26;2.70;;;0.80;;
24301;SDS011;12421;49.732;20.078;2023-08-07T03:19:34;2.10;;;0.70;;
24301;SDS011;12421;49.732;20.078;2023-08-07T03:29:45;8.20;;;0.90;;
24301;SDS011;12421;49.732;20.078;2023-08-07T03:39:54;2.00;;;1.00;;
24301;SDS011;12421;49.732;20.078;2023-08-07T03:50:21;5.10;;;1.00;;
24301;SDS011;12421;49.732;20.078;2023-08-07T04:00:27;3.00;;;1.10;;
24301;SDS011;12421;49.732;20.078;2023-08-07T04:10:32;5.10;;;0.90;;
24301;SDS011;12421;49.732;20.078;2023-08-07T04:20:36;6.00;;;1.30;;
24301;SDS011;12421;49.732;20.078;2023-08-07T04:30:41;4.00;;;1.00;;
24301;SDS011;12421;49.732;20.078;2023-08-07T04:40:56;2.80;;;1.10;;
24301;SDS011;12421;49.732;20.078;2023-08-07T04:51:01;3.50;;;1.00;;
24301;SDS011;12421;49.732;20.078;2023-08-07T05:01:36;1.60;;;0.80;;
24301;SDS011;12421;49.732;20.078;2023-08-07T05:11:39;4.80;;;2.70;;
24301;SDS011;12421;49.732;20.078;2023-08-07T05:21:44;2.20;;;1.30;;
24301;SDS011;12421;49.732;20.078;2023-08-07T05:32:00;3.20;;;1.40;;
24301;SDS011;12421;49.732;20.078;2023-08-07T05:42:07;5.20;;;2.70;;
24301;SDS011;12421;49.732;20.078;2023-08-07T05:52:15;3.30;;;2.30;;
24301;SDS011;12421;49.732;20.078;2023-08-07T06:13:24;4.70;;;1.60;;
24301;SDS011;12421;49.732;20.078;2023-08-07T06:23:47;3.90;;;1.80;;
24301;SDS011;12421;49.732;20.078;2023-08-07T06:34:15;5.50;;;1.60;;
24301;SDS011;12421;49.732;20.078;2023-08-07T06:55:15;2.20;;;1.00;;
24301;SDS011;12421;49.732;20.078;2023-08-07T07:17:08;0.50;;;0.30;;
24301;SDS011;12421;49.732;20.078;2023-08-07T07:27:45;0.90;;;0.30;;
24301;SDS011;12421;49.732;20.078;2023-08-07T07:37:49;4.80;;;0.60;;
24301;SDS011;12421;49.732;20.078;2023-08-07T07:47:53;0.70;;;0.20;;
24301;SDS011;12421;49.732;20.078;2023-08-07T07:58:06;0.50;;;0.20;;
24301;SDS011;12421;49.732;20.078;2023-08-07T08:08:21;0.20;;;0.10;;
24301;SDS011;12421;49.732;20.078;2023-08-07T08:18:25;0.80;;;0.20;;
24301;SDS011;12421;49.732;20.078;2023-08-07T08:28:32;0.70;;;0.20;;
24301;SDS011;12421;49.732;20.078;2023-08-07T08:38:35;2.00;;;0.30;;
24301;SDS011;12421;49.732;20.078;2023-08-07T08:48:58;1.10;;;0.30;;
24301;SDS011;12421;49.732;20.078;2023-08-07T08:59:04;0.70;;;0.20;;
24301;SDS011;12421;49.732;20.078;2023-08-07T09:09:08;0.50;;;0.30;;
24301;SDS011;12421;49.732;20.078;2023-08-07T09:19:13;0.40;;;0.10;;
24301;SDS011;12421;49.732;20.078;2023-08-07T09:29:17;0.80;;;0.30;;
24301;SDS011;12421;49.732;20.078;2023-08-07T09:39:23;0.70;;;0.20;;
24301;SDS011;12421;49.732;20.078;2023-08-07T09:49:32;1.70;;;0.20;;
24301;SDS011;12421;49.732;20.078;2023-08-07T09:59:36;0.70;;;0.20;;
24301;SDS011;12421;49.732;20.078;2023-08-07T10:09:40;2.20;;;0.20;;
24301;SDS011;12421;49.732;20.078;2023-08-07T10:19:44;3.00;;;0.10;;
24301;SDS011;12421;49.732;20.078;2023-08-07T10:29:48;0.20;;;0.10;;
24301;SDS011;12421;49.732;20.078;2023-08-07T10:40:03;1.20;;;0.30;;
24301;SDS011;12421;49.732;20.078;2023-08-07T10:50:09;0.40;;;0.20;;
24301;SDS011;12421;49.732;20.078;2023-08-07T11:00:13;2.80;;;0.20;;
24301;SDS011;12421;49.732;20.078;2023-08-07T11:10:18;0.70;;;0.20;;
24301;SDS011;12421;49.732;20.078;2023-08-07T11:20:22;1.40;;;0.30;;
24301;SDS011;12421;49.732;20.078;2023-08-07T11:30:32;0.90;;;0.20;;
24301;SDS011;12421;49.732;20.078;2023-08-07T11:40:37;0.90;;;0.30;;
24301;SDS011;12421;49.732;20.078;2023-08-07T12:00:57;1.80;;;0.60;;
24301;SDS011;12421;49.732;20.078;2023-08-07T12:11:06;1.50;;;0.60;;
24301;SDS011;12421;49.732;20.078;2023-08-07T12:21:15;1.00;;;0.40;;
24301;SDS011;12421;49.732;20.078;2023-08-07T12:31:24;7.20;;;1.10;;
24301;SDS011;12421;49.732;20.078;2023-08-07T12:41:27;2.80;;;0.50;;
24301;SDS011;12421;49.732;20.078;2023-08-07T12:51:33;1.10;;;0.40;;
24301;SDS011;12421;49.732;20.078;2023-08-07T13:01:38;1.00;;;0.30;;
24301;SDS011;12421;49.732;20.078;2023-08-07T13:11:44;4.00;;;0.60;;
24301;SDS011;12421;49.732;20.078;2023-08-07T13:22:18;0.20;;;0.20;;
24301;SDS011;12421;49.732;20.078;2023-08-07T13:32:30;1.20;;;0.40;;
24301;SDS011;12421;49.732;20.078;2023-08-07T13:43:04;1.90;;;0.60;;
24301;SDS011;12421;49.732;20.078;2023-08-07T13:53:25;0.90;;;0.40;;
24301;SDS011;12421;49.732;20.078;2023-08-07T14:03:32;1.70;;;0.80;;
24301;SDS011;12421;49.732;20.078;2023-08-07T14:13:55;2.30;;;1.30;;
24301;SDS011;12421;49.732;20.078;2023-08-07T14:24:00;5.30;;;1.60;;
24301;SDS011;12421;49.732;20.078;2023-08-07T14:34:04;3.90;;;1.00;;
24301;SDS011;12421;49.732;20.078;2023-08-07T14:44:08;2.70;;;1.10;;
24301;SDS011;12421;49.732;20.078;2023-08-07T14:54:13;2.10;;;1.20;;
24301;SDS011;12421;49.732;20.078;2023-08-07T15:04:17;2.60;;;1.30;;
24301;SDS011;12421;49.732;20.078;2023-08-07T15:14:23;3.20;;;1.30;;
24301;SDS011;12421;49.732;20.078;2023-08-07T15:24:27;3.70;;;1.70;;
24301;SDS011;12421;49.732;20.078;2023-08-07T15:34:31;3.20;;;1.20;;
24301;SDS011;12421;49.732;20.078;2023-08-07T15:44:41;4.20;;;2.30;;
24301;SDS011;12421;49.732;20.078;2023-08-07T15:54:47;5.00;;;2.20;;
24301;SDS011;12421;49.732;20.078;2023-08-07T16:04:50;6.50;;;3.30;;
24301;SDS011;12421;49.732;20.078;2023-08-07T16:15:02;4.90;;;2.00;;
24301;SDS011;12421;49.732;20.078;2023-08-07T16:25:07;4.80;;;2.60;;
24301;SDS011;12421;49.732;20.078;2023-08-07T16:35:14;3.70;;;2.50;;
24301;SDS011;12421;49.732;20.078;2023-08-07T16:45:19;4.10;;;2.10;;
24301;SDS011;12421;49.732;20.078;2023-08-07T16:55:25;5.20;;;2.10;;
24301;SDS011;12421;49.732;20.078;2023-08-07T17:05:29;6.40;;;2.20;;
24301;SDS011;12421;49.732;20.078;2023-08-07T17:15:34;4.30;;;2.40;;
24301;SDS011;12421;49.732;20.078;2023-08-07T17:25:42;7.80;;;3.20;;
24301;SDS011;12421;49.732;20.078;2023-08-07T17:46:24;6.70;;;3.40;;
24301;SDS011;12421;49.732;20.078;2023-08-07T17:56:40;5.90;;;3.80;;
24301;SDS011;12421;49.732;20.078;2023-08-07T18:07:17;5.70;;;3.40;;
24301;SDS011;12421;49.732;20.078;2023-08-07T19:12:29;6.90;;;4.50;;
24301;SDS011;12421;49.732;20.078;2023-08-07T19:34:29;7.70;;;3.80;;
24301;SDS011;12421;49.732;20.078;2023-08-07T19:45:43;7.00;;;4.10;;
24301;SDS011;12421;49.732;20.078;2023-08-07T20:07:54;13.30;;;5.00;;
24301;SDS011;12421;49.732;20.078;2023-08-07T20:18:28;8.60;;;4.30;;
24301;SDS011;12421;49.732;20.078;2023-08-07T20:29:10;12.00;;;4.60;;
24301;SDS011;12421;49.732;20.078;2023-08-07T20:51:03;7.20;;;3.70;;
24301;SDS011;12421;49.732;20.078;2023-08-07T21:24:02;9.10;;;3.50;;
24301;SDS011;12421;49.732;20.078;2023-08-07T21:55:01;3.60;;;2.10;;
24301;SDS011;12421;49.732;20.078;2023-08-07T22:16:22;2.90;;;1.60;;
24301;SDS011;12421;49.732;20.078;2023-08-07T22:37:36;7.00;;;1.40;;
24301;SDS011;12421;49.732;20.078;2023-08-07T22:47:42;3.50;;;0.90;;
24301;SDS011;12421;49.732;20.078;2023-08-07T22:58:03;3.90;;;1.10;;
24301;SDS011;12421;49.732;20.078;2023-08-07T23:08:18;4.70;;;0.80;;
24301;SDS011;12421;49.732;20.078;2023-08-07T23:41:04;3.30;;;0.60;;
24301;SDS011;12421;49.732;20.078;2023-08-07T23:51:34;2.70;;;0.80;;
